• Join FlightAware (Why Join?)
  • Login
  • US Flag 
Rudolph Flight #1: Arrived! 
07:14PM EST


 

Airport Tracker/Info


-or-


 

Live Flight TrackerFlight Track Log ✈ AWE1616 ✈ 31-Jul-2013 ✈ KCLT - KEWR

Flight Track Log - Related Links

Times and Time Zones

All times are in EDT time to prevent confusion due to time zone crossing. See the AWE1616 flight status page for this flight to view local times or setup timezone preferences in your user account.

Time Position Orientation Groundspeed Altitude Reporting Facility
EDT Latitude Longitude Course Direction KTS MPH feet Rate Location/Type
10:18AM 35.1867 -80.9358 72° East 165 190 2,000  Level Atlanta Center
10:19AM 35.1381 -80.9147 160° South 216 249 3,100 1,740 Climbing Atlanta Center
10:20AM 35.0950 -80.8556 132° Southeast 283 326 5,500 2,520 Climbing Atlanta Center
10:21AM 35.1204 -80.6197 29° Northeast  Level FlightAware Approximate
10:21AM 35.1133 -80.7658 76° East 300 345 8,100  Level Atlanta Center
10:22AM 35.2196 -80.5527 30° Northeast  Level FlightAware Approximate
10:22AM 35.1667 -80.6572 59° Northeast 315 362 10,700  Level Atlanta Center
10:23AM 35.3167 -80.4822 90° East  Level FlightAware Approximate
10:23AM 35.2242 -80.5481 57° Northeast 347 399 12,100  Level Atlanta Center
10:24AM 35.3592 -80.3687 72° East  Level FlightAware Approximate
10:25AM 35.3450 -80.3131 58° Northeast 395 455 17,600  Level Washington Center
10:26AM 35.4036 -80.2044 56° Northeast 389 448 19,300 1,620 Climbing Washington Center
10:27AM 35.4478 -80.0819 66° East 384 442 20,900 1,500 Climbing Washington Center
10:28AM 35.4819 -79.9539 72° East 384 442 22,400 1,320 Climbing Washington Center
10:29AM 35.5158 -79.8178 73° East 395 455 23,600 1,200 Climbing Washington Center
10:30AM 35.5519 -79.6819 72° East 408 470 24,900 1,200 Climbing Washington Center
10:31AM 35.5856 -79.5508 72° East 424 488 26,000 1,260 Climbing Washington Center
10:32AM 35.6281 -79.3969 71° East 436 502 27,500 1,140 Climbing Washington Center
10:33AM 35.6867 -79.2617 62° Northeast 436 502 28,400 840 Climbing Washington Center
10:34AM 35.7647 -79.1631 46° Northeast 442 509 29,200 900 Climbing Washington Center
10:35AM 35.8758 -79.0808 31° Northeast 437 503 30,200 900 Climbing Washington Center
10:36AM 35.9886 -78.9986 31° Northeast 453 521 31,000 360 Climbing Washington Center
10:37AM 36.1014 -78.9186 30° Northeast 459 528 31,000  Level Washington Center
10:38AM 36.2144 -78.8333 31° Northeast 471 542 31,000  Level Washington Center
10:39AM 36.3272 -78.7478 31° Northeast 471 542 31,000  Level Washington Center
10:40AM 36.4358 -78.6642 32° Northeast 471 542 31,000  Level Washington Center
10:41AM 36.5486 -78.5808 31° Northeast 471 542 31,000  Level Washington Center
10:42AM 36.6633 -78.4944 31° Northeast 471 542 31,000  Level Washington Center
10:43AM 36.7761 -78.4056 32° Northeast 471 542 31,000 -420 Level Washington Center
10:44AM 36.8906 -78.3239 30° Northeast 471 542 30,200 -1,020 Descending Washington Center
10:45AM 37.0117 -78.2267 33° Northeast 471 542 29,100 -900 Descending Washington Center
10:46AM 37.1222 -78.1394 32° Northeast 471 542 28,400 -840 Descending Washington Center
10:47AM 37.2153 -78.0719 30° Northeast 454 522 27,400 -720 Descending Washington Center
10:48AM 37.3233 -77.9894 31° Northeast 448 516 27,000 -240 Descending Washington Center
10:49AM 37.4336 -77.9014 32° Northeast 453 521 27,000  Level Washington Center
10:50AM 37.5414 -77.8181 32° Northeast 459 528 27,000  Level Washington Center
10:51AM 37.6456 -77.7242 36° Northeast 459 528 27,000  Level Washington Center
10:52AM 37.7492 -77.6297 36° Northeast 464 534 27,000  Level Washington Center
10:53AM 37.8553 -77.5328 36° Northeast 459 528 27,000  Level Washington Center
10:54AM 37.9589 -77.4381 36° Northeast 459 528 27,000  Level Washington Center
10:55AM 38.0731 -77.3325 36° Northeast 459 528 27,000  Level Washington Center
10:56AM 38.1828 -77.2294 36° Northeast 459 528 27,000  Level Washington Center
10:57AM 38.2842 -77.1364 36° Northeast 474 545 27,000  Level Washington Center
10:58AM 38.4044 -77.0250 36° Northeast 487 560 27,000  Level Washington Center
10:59AM 38.5139 -76.9264 35° Northeast 487 560 27,000  Level Washington Center
11:00AM 38.6236 -76.8247 36° Northeast 488 562 27,000  Level Washington Center
11:01AM 38.7203 -76.7253 39° Northeast 488 562 27,000  Level Washington Center
11:02AM 38.8214 -76.6122 41° Northeast 483 556 27,000  Level Washington Center
11:03AM 38.9225 -76.4961 42° Northeast 483 556 27,000  Level Washington Center
11:04AM 39.0233 -76.3797 42° Northeast 483 556 27,000  Level Washington Center
11:05AM 39.1242 -76.2631 42° Northeast 488 562 27,000 -420 Level Washington Center
11:06AM 39.2289 -76.1436 41° Northeast 493 567 26,200 -960 Descending Washington Center
11:07AM 39.3253 -76.0261 43° Northeast 488 562 25,100 -600 Descending Washington Center
11:08AM 39.4214 -75.9192 41° Northeast 470 541 25,000 -60 Descending Washington Center
11:09AM 39.5114 -75.8094 43° Northeast 451 519 25,000  Level Washington Center
11:10AM 39.6031 -75.6992 43° Northeast 444 511 25,000 -180 Level Washington Center
11:11AM 39.6928 -75.5942 42° Northeast 444 511 24,700 -2,340 Descending Washington Center
11:12AM 39.7822 -75.4836 44° Northeast 444 511 20,500 -3,900 Descending Washington Center
11:13AM 39.8675 -75.3833 42° Northeast 430 495 16,800 -3,240 Descending Washington Center
11:14AM 39.9547 -75.2722 44° Northeast 415 478 14,100 -2,220 Descending Washington Center
11:15AM 40.0317 -75.1822 42° Northeast 383 441 12,400 -1,260 Descending Washington Center
11:18AM 40.1833 -75.0000 43° Northeast 302 348 10,100 -1,080 Descending New York TRACON
11:19AM 40.2333 -74.9333 45° Northeast 296 341 9,000 -1,080 Descending New York TRACON
11:20AM 40.3000 -74.8500 44° Northeast 288 331 8,000 -1,080 Descending New York TRACON
11:21AM 40.3500 -74.7833 45° Northeast 288 331 6,900 -1,080 Descending New York TRACON
11:22AM 40.4000 -74.7000 52° Northeast 282 325 6,000 -480 Descending New York TRACON
11:23AM 40.4667 -74.6667 21° North 280 322 6,000  Level New York TRACON
11:24AM 40.5333 -74.6333 21° North 276 318 6,000  Level New York TRACON
11:24AM 40.6000 -74.6167 11° North 277 319 6,000  Level New York TRACON
11:26AM 40.6833 -74.6000 North 277 319 6,000 -240 Level New York TRACON
11:27AM 40.7500 -74.5667 21° North 280 322 5,500 -540 Descending New York TRACON
11:28AM 40.8000 -74.4833 52° Northeast 277 319 5,000 -300 Descending New York TRACON
11:28AM 40.8500 -74.4167 45° Northeast 274 315 5,000 -120 Level New York TRACON
11:29AM 40.9000 -74.3333 52° Northeast 281 323 4,800 -540 Descending New York TRACON
11:30AM 40.9167 -74.2500 75° East 278 320 4,000 -420 Descending New York TRACON
11:31AM 40.9167 -74.1500 90° East 280 322 4,000 -480 Level New York TRACON
11:33AM 40.8500 -74.0833 143° Southeast 262 302 3,000 -960 Descending New York TRACON
11:33AM 40.8000 -74.1000 194° South 212 244 2,100 -960 Descending New York TRACON
11:34AM 40.7500 -74.1333 207° Southwest 161 185 1,200 -900 Descending New York TRACON
11:35AM 40.7167 -74.1500 201° Southwest 145 167 400 -840 Descending New York TRACON